Time;durP1;ratioP1;P1;durP2;ratioP2;P2;SDS_P1;SDS_P2;PMS_P1;PMS_P2;Temp;Humidity;BMP_temperature;BMP_pressure;BME280_temperature;BME280_humidity;BME280_pressure;Samples;Min_cycle;Max_cycle;Signal;HPM_P1;HPM_P2
2021/08/05 00:02:11;;;;;;;;;;;;;;;17.10;100.00;100024.19;5096616;22;19937;-68
2021/08/05 00:04:55;;;;;;;;;;;;;;;17.08;100.00;100031.63;5051557;28;19932;-66
2021/08/05 00:07:39;;;;;;;;;;;;;;;17.07;100.00;100029.97;5037934;28;19974;-68
2021/08/05 00:10:23;;;;;;;;;;;;;;;17.06;100.00;100043.63;5039395;28;19975;-67
2021/08/05 00:13:07;;;;;;;;;;;;;;;17.03;100.00;100042.16;5042067;28;19927;-67
2021/08/05 00:15:51;;;;;;;;;;;;;;;17.02;100.00;100043.19;5042383;28;19923;-68
2021/08/05 00:18:35;;;;;;;;;;;;;;;17.03;100.00;100039.47;5042290;28;19923;-67
2021/08/05 00:21:19;;;;;;;;;;;;;;;17.05;100.00;100036.56;5055954;28;19923;-67
2021/08/05 00:24:03;;;;;;;;;;;;;;;17.01;100.00;100038.81;5041550;28;20063;-69
2021/08/05 00:26:47;;;;;;;;;;;;;;;17.03;100.00;100034.09;5055723;28;20297;-68
2021/08/05 00:29:31;;;;;;;;;;;;;;;17.06;100.00;100033.69;5041663;28;19928;-68
2021/08/05 00:32:15;;;;;;;;;;;;;;;17.07;100.00;100032.66;5041999;28;19971;-68
2021/08/05 00:34:59;;;;;;;;;;;;;;;17.03;100.00;100034.09;5041388;28;20020;-66
2021/08/05 00:37:43;;;;;;;;;;;;;;;17.05;100.00;100026.66;5041383;28;19924;-68
2021/08/05 00:40:26;;;;;;;;;;;;;;;17.09;100.00;100024.41;5055399;28;19927;-68
2021/08/05 00:43:10;;;;;;;;;;;;;;;17.10;100.00;100016.13;5041514;28;20062;-69
2021/08/05 00:45:54;;;;;;;;;;;;;;;17.10;100.00;100021.50;5041514;28;19924;-68
2021/08/05 00:48:38;;;;;;;;;;;;;;;17.12;100.00;100013.25;5041224;28;19928;-68
2021/08/05 00:51:22;;;;;;;;;;;;;;;17.05;100.00;100007.78;5041146;28;20465;-67
2021/08/05 00:54:07;;;;;;;;;;;;;;;17.09;100.00;100006.38;5041094;28;20016;-68
2021/08/05 00:56:50;;;;;;;;;;;;;;;17.04;100.00;100005.28;5041181;28;19924;-68
2021/08/05 00:59:34;;;;;;;;;;;;;;;17.02;100.00;100000.09;5055319;28;20289;-67
2021/08/05 01:02:22;;;;;;;;;;;;;;;16.95;100.00;99993.81;5041290;28;19970;-68
2021/08/05 01:05:06;;;;;;;;;;;;;;;16.88;100.00;100006.34;5041561;28;19958;-67
2021/08/05 01:07:52;;;;;;;;;;;;;;;16.83;100.00;99998.03;5040993;28;20396;-67
2021/08/05 01:10:49;;;;;;;;;;;;;;;16.80;100.00;100006.47;5041034;28;19924;-68
2021/08/05 01:13:51;;;;;;;;;;;;;;;16.75;100.00;99999.97;5041201;28;19975;-68
2021/08/05 01:16:36;;;;;;;;;;;;;;;16.73;100.00;99999.34;5055315;28;19924;-68
2021/08/05 01:19:38;;;;;;;;;;;;;;;16.71;100.00;100001.41;5041140;28;19970;-68
2021/08/05 01:22:41;;;;;;;;;;;;;;;16.66;100.00;99996.59;5054418;28;19923;-68
2021/08/05 01:25:24;;;;;;;;;;;;;;;16.64;100.00;99995.94;5054894;28;19920;-68
2021/08/05 01:28:09;;;;;;;;;;;;;;;16.64;100.00;99995.94;5054761;28;19927;-68
2021/08/05 01:30:53;;;;;;;;;;;;;;;16.63;100.00;99999.66;5040375;28;19998;-68
2021/08/05 01:33:37;;;;;;;;;;;;;;;16.60;100.00;99988.44;5040324;28;20405;-68
2021/08/05 01:36:23;;;;;;;;;;;;;;;16.61;100.00;99996.34;5040837;28;20406;-68
2021/08/05 01:39:07;;;;;;;;;;;;;;;16.60;100.00;99997.31;5041164;28;19969;-68
2021/08/05 01:41:51;;;;;;;;;;;;;;;16.60;100.00;99997.31;5040148;28;20008;-68
2021/08/05 01:44:35;;;;;;;;;;;;;;;16.56;100.00;100004.13;5040118;28;19924;-68
2021/08/05 01:47:20;;;;;;;;;;;;;;;16.54;100.00;100006.19;5040447;28;19967;-67
2021/08/05 01:50:06;;;;;;;;;;;;;;;16.51;100.00;100003.88;5054721;28;19975;-68
2021/08/05 01:52:49;;;;;;;;;;;;;;;16.50;100.00;99996.78;5039945;28;20010;-67
2021/08/05 01:55:33;;;;;;;;;;;;;;;16.49;100.00;99997.00;5040215;28;19982;-67
2021/08/05 01:58:17;;;;;;;;;;;;;;;16.49;100.00;99997.81;5040154;28;19969;-68
2021/08/05 02:01:01;;;;;;;;;;;;;;;16.50;100.00;99993.28;5039885;28;19962;-68
2021/08/05 02:03:50;;;;;;;;;;;;;;;16.47;100.00;99986.41;5039665;28;19923;-68
2021/08/05 02:06:36;;;;;;;;;;;;;;;16.46;100.00;99982.06;5054074;28;19924;-68
2021/08/05 02:09:23;;;;;;;;;;;;;;;16.46;100.00;99984.75;5039577;28;19975;-68
2021/08/05 02:12:07;;;;;;;;;;;;;;;16.44;100.00;99989.50;5039930;28;19966;-68
2021/08/05 02:14:51;;;;;;;;;;;;;;;16.42;100.00;99986.16;5039824;28;19919;-68
2021/08/05 02:17:36;;;;;;;;;;;;;;;16.44;100.00;99980.56;5039583;28;20289;-69
2021/08/05 02:20:20;;;;;;;;;;;;;;;16.40;100.00;99984.66;5039834;28;19923;-68
2021/08/05 02:23:05;;;;;;;;;;;;;;;16.38;100.00;99973.28;5039812;28;19923;-68
2021/08/05 02:25:50;;;;;;;;;;;;;;;16.39;100.00;99975.75;5039522;28;19923;-68
2021/08/05 02:28:34;;;;;;;;;;;;;;;16.40;100.00;99972.03;5039678;28;19928;-68
2021/08/05 02:31:18;;;;;;;;;;;;;;;16.38;100.00;99974.09;5039813;28;19966;-68
2021/08/05 02:34:02;;;;;;;;;;;;;;;16.43;100.00;99971.69;5038586;28;19963;-68
2021/08/05 02:36:45;;;;;;;;;;;;;;;16.46;100.00;99965.91;5039422;28;19924;-68
2021/08/05 02:39:29;;;;;;;;;;;;;;;16.49;100.00;99962.00;5039347;28;19924;-68
2021/08/05 02:42:13;;;;;;;;;;;;;;;16.54;100.00;99963.13;5038970;28;19928;-68
2021/08/05 02:44:57;;;;;;;;;;;;;;;16.53;100.00;99956.06;5039362;28;20381;-68
2021/08/05 02:47:41;;;;;;;;;;;;;;;16.56;100.00;99965.63;5038936;28;20400;-68
2021/08/05 02:50:25;;;;;;;;;;;;;;;16.57;100.00;99961.91;5052943;28;19923;-68
2021/08/05 02:53:10;;;;;;;;;;;;;;;16.53;100.00;99958.75;5039311;28;19924;-68
2021/08/05 02:55:54;;;;;;;;;;;;;;;16.55;100.00;99961.25;5039204;28;19966;-68
2021/08/05 02:58:38;;;;;;;;;;;;;;;16.57;100.00;99957.34;5039134;28;20022;-68
2021/08/05 03:01:22;;;;;;;;;;;;;;;16.58;100.00;99950.13;5053072;28;19979;-67
2021/08/05 03:04:06;;;;;;;;;;;;;;;16.59;100.00;99955.28;5038556;28;19928;-68
2021/08/05 03:06:50;;;;;;;;;;;;;;;16.58;100.00;99942.88;5038678;28;19924;-68
2021/08/05 03:09:34;;;;;;;;;;;;;;;16.60;100.00;99950.75;5038844;28;19927;-67
2021/08/05 03:12:18;;;;;;;;;;;;;;;16.58;100.00;99953.63;5038748;28;20018;-68
2021/08/05 03:15:02;;;;;;;;;;;;;;;16.64;100.00;99950.19;5038534;28;19920;-68
2021/08/05 03:17:45;;;;;;;;;;;;;;;16.61;100.00;99937.13;5038816;28;20392;-69
2021/08/05 03:20:29;;;;;;;;;;;;;;;16.60;100.00;99940.81;5039038;28;20412;-68
2021/08/05 03:23:13;;;;;;;;;;;;;;;16.59;100.00;99939.16;5038417;28;19932;-67
2021/08/05 03:25:57;;;;;;;;;;;;;;;16.62;100.00;99938.78;5038383;28;19924;-68
2021/08/05 03:28:41;;;;;;;;;;;;;;;16.56;100.00;99938.72;5038474;28;20024;-68
2021/08/05 03:31:25;;;;;;;;;;;;;;;16.56;100.00;99938.72;5038338;28;20342;-68
2021/08/05 03:34:09;;;;;;;;;;;;;;;16.54;100.00;99940.75;5038575;28;19924;-68
2021/08/05 03:36:53;;;;;;;;;;;;;;;16.54;100.00;99946.97;5038604;28;20298;-68
2021/08/05 03:39:37;;;;;;;;;;;;;;;16.52;100.00;99946.34;5038887;28;19928;-69
2021/08/05 03:42:21;;;;;;;;;;;;;;;16.54;100.00;99944.28;5038147;28;19969;-67
2021/08/05 03:45:05;;;;;;;;;;;;;;;16.51;100.00;99944.66;5052659;28;19919;-68
2021/08/05 03:47:49;;;;;;;;;;;;;;;16.50;100.00;99934.09;5042327;28;19974;-69
2021/08/05 03:50:33;;;;;;;;;;;;;;;16.45;100.00;99942.72;5042295;28;20022;-68
2021/08/05 03:53:17;;;;;;;;;;;;;;;16.41;100.00;99944.13;5056562;28;19966;-68
2021/08/05 03:56:01;;;;;;;;;;;;;;;16.40;100.00;99949.69;5042426;28;20028;-68
2021/08/05 03:58:45;;;;;;;;;;;;;;;16.36;100.00;99946.53;5042110;28;20082;-68
2021/08/05 04:01:29;;;;;;;;;;;;;;;16.33;100.00;99946.03;5042394;28;20010;-68
2021/08/05 04:04:12;;;;;;;;;;;;;;;16.33;100.00;99949.59;5041911;28;19970;-68
2021/08/05 04:06:56;;;;;;;;;;;;;;;16.32;100.00;99949.75;5042024;28;19928;-68
2021/08/05 04:09:40;;;;;;;;;;;;;;;16.30;100.00;99941.06;5041856;28;19967;-67
2021/08/05 04:12:24;;;;;;;;;;;;;;;16.29;100.00;99950.97;5042155;28;20027;-69
2021/08/05 04:15:08;;;;;;;;;;;;;;;16.29;100.00;99953.66;5041787;28;20284;-68
2021/08/05 04:17:53;;;;;;;;;;;;;;;16.25;100.00;99960.44;5042023;28;19986;-67
2021/08/05 04:20:37;;;;;;;;;;;;;;;16.24;100.00;99950.72;5042032;28;19927;-68
2021/08/05 04:23:21;;;;;;;;;;;;;;;16.27;100.00;99952.19;5042090;28;20350;-68
2021/08/05 04:26:05;;;;;;;;;;;;;;;16.25;100.00;99947.00;5041629;28;19924;-68
2021/08/05 04:28:49;;;;;;;;;;;;;;;16.26;100.00;99947.84;5041780;28;19928;-68
2021/08/05 04:31:33;;;;;;;;;;;;;;;16.24;100.00;99945.34;5041526;28;19924;-68
2021/08/05 04:34:17;;;;;;;;;;;;;;;16.24;100.00;99945.34;5041962;28;19927;-68
2021/08/05 04:37:01;;;;;;;;;;;;;;;16.22;100.00;99942.00;5041694;28;19923;-68
2021/08/05 04:39:45;;;;;;;;;;;;;;;16.19;100.00;99942.34;5055790;28;19963;-66
2021/08/05 04:42:28;;;;;;;;;;;;;;;16.13;100.00;99948.50;5041231;28;19923;-68
2021/08/05 04:45:12;;;;;;;;;;;;;;;16.17;100.00;99943.59;5055624;28;19923;-68
2021/08/05 04:47:57;;;;;;;;;;;;;;;16.15;100.00;99941.06;5041112;28;20297;-68
2021/08/05 04:50:42;;;;;;;;;;;;;;;16.14;100.00;99939.41;5055405;28;20354;-68
2021/08/05 04:53:26;;;;;;;;;;;;;;;16.20;100.00;99944.06;5055236;28;19962;-68
2021/08/05 04:56:10;;;;;;;;;;;;;;;16.24;100.00;99939.94;5054610;28;19963;-67
2021/08/05 04:58:54;;;;;;;;;;;;;;;16.29;100.00;99936.69;5056464;28;19966;-67
2021/08/05 05:01:38;;;;;;;;;;;;;;;16.32;100.00;99941.69;5056366;28;20019;-68
2021/08/05 05:04:22;;;;;;;;;;;;;;;16.36;100.00;99937.66;5054917;28;20305;-68
2021/08/05 05:07:06;;;;;;;;;;;;;;;16.44;100.00;99937.53;5056557;28;20388;-68
2021/08/05 05:09:50;;;;;;;;;;;;;;;16.47;100.00;99937.16;5054865;28;19928;-68
2021/08/05 05:12:34;;;;;;;;;;;;;;;16.58;100.00;99937.47;5056050;28;19978;-68
2021/08/05 05:15:19;;;;;;;;;;;;;;;16.65;100.00;99938.41;5054767;28;20285;-68
2021/08/05 05:18:04;;;;;;;;;;;;;;;16.64;100.00;99936.72;5056089;28;19924;-68
2021/08/05 05:20:48;;;;;;;;;;;;;;;16.72;100.00;99939.31;5040872;28;19924;-68
2021/08/05 05:23:32;;;;;;;;;;;;;;;16.76;100.00;99940.59;5055701;28;19924;-68
2021/08/05 05:26:16;;;;;;;;;;;;;;;16.78;100.00;99941.22;5054435;28;19923;-68
2021/08/05 05:29:00;;;;;;;;;;;;;;;16.78;100.00;99945.78;5055686;28;19970;-67
2021/08/05 05:31:44;;;;;;;;;;;;;;;16.81;100.00;99942.69;5054544;28;20397;-68
2021/08/05 05:34:28;;;;;;;;;;;;;;;16.92;100.00;99945.72;5040581;28;19967;-68
2021/08/05 05:37:11;;;;;;;;;;;;;;;16.91;100.00;99948.59;5054455;28;19923;-68
2021/08/05 05:39:55;;;;;;;;;;;;;;;16.95;100.00;99939.94;5040528;28;19967;-68
2021/08/05 05:42:39;;;;;;;;;;;;;;;17.00;100.00;99934.81;5040367;28;20409;-67
2021/08/05 05:45:23;;;;;;;;;;;;;;;17.06;100.00;99933.19;5040465;28;19975;-68
2021/08/05 05:48:08;;;;;;;;;;;;;;;17.08;100.00;99940.06;5040048;28;20066;-68
2021/08/05 05:50:52;;;;;;;;;;;;;;;17.03;100.00;99931.75;5040371;28;19924;-68
2021/08/05 05:53:36;;;;;;;;;;;;;;;17.09;100.00;99930.94;5040525;28;19923;-68
2021/08/05 05:56:19;;;;;;;;;;;;;;;17.12;100.00;99941.38;5054327;28;20319;-68
2021/08/05 05:59:03;;;;;;;;;;;;;;;17.25;100.00;99937.94;5040188;28;20003;-67
2021/08/05 06:01:47;;;;;;;;;;;;;;;17.36;100.00;99938.28;5039924;28;19928;-68
2021/08/05 06:04:31;;;;;;;;;;;;;;;17.48;100.00;99936.72;5109006;22;19930;-67
2021/08/05 06:07:15;;;;;;;;;;;;;;;17.53;100.00;99934.28;5115481;28;19968;-67
2021/08/05 06:09:59;;;;;;;;;;;;;;;17.63;100.00;99933.91;5099529;28;19927;-66
2021/08/05 06:12:43;;;;;;;;;;;;;;;17.66;100.00;99942.44;5100428;28;20042;-68
2021/08/05 06:15:27;;;;;;;;;;;;;;;17.75;100.00;99940.41;5100162;28;19927;-67
2021/08/05 06:18:11;;;;;;;;;;;;;;;17.88;100.00;99944.03;5114281;28;20422;-67
2021/08/05 06:20:54;;;;;;;;;;;;;;;17.99;100.00;99940.78;5100032;28;19923;-67
2021/08/05 06:23:39;;;;;;;;;;;;;;;18.05;100.00;99937.28;5100126;28;20330;-67
2021/08/05 06:26:23;;;;;;;;;;;;;;;18.19;100.00;99939.00;5099765;28;19964;-67
2021/08/05 06:29:08;;;;;;;;;;;;;;;18.15;100.00;99937.75;5099535;28;19927;-67
2021/08/05 06:31:51;;;;;;;;;;;;;;;18.32;100.00;99931.00;5099847;28;20284;-67
2021/08/05 06:34:35;;;;;;;;;;;;;;;18.42;100.00;99928.75;5099469;28;19923;-67
2021/08/05 06:37:19;;;;;;;;;;;;;;;18.56;100.00;99938.56;5099709;28;19923;-67
2021/08/05 06:40:05;;;;;;;;;;;;;;;18.76;100.00;99934.06;5099702;28;19980;-67
2021/08/05 06:42:49;;;;;;;;;;;;;;;18.76;100.00;99925.97;5099439;28;20300;-68
2021/08/05 06:45:33;;;;;;;;;;;;;;;18.76;100.00;99931.38;5099577;28;20342;-67
2021/08/05 06:48:17;;;;;;;;;;;;;;;18.60;100.00;99926.31;5099469;28;20288;-67
2021/08/05 06:51:00;;;;;;;;;;;;;;;18.71;100.00;99921.16;5099487;28;20348;-67
2021/08/05 06:53:44;;;;;;;;;;;;;;;18.68;100.00;99928.84;5099323;28;20064;-66
2021/08/05 06:56:28;;;;;;;;;;;;;;;18.60;100.00;99923.63;5099368;28;19923;-67
2021/08/05 06:59:13;;;;;;;;;;;;;;;18.68;99.93;99923.44;5099320;28;19922;-67
2021/08/05 07:01:57;;;;;;;;;;;;;;;18.76;100.00;99929.47;5099334;28;19933;-67
2021/08/05 07:04:41;;;;;;;;;;;;;;;19.03;99.65;99924.94;5098810;28;19923;-67
2021/08/05 07:07:24;;;;;;;;;;;;;;;19.28;97.47;99926.03;5099264;28;20291;-67
2021/08/05 07:10:09;;;;;;;;;;;;;;;19.31;95.29;99925.63;5098834;28;19976;-66
2021/08/05 07:12:52;;;;;;;;;;;;;;;19.46;93.99;99926.22;5113210;28;19968;-67
2021/08/05 07:15:36;;;;;;;;;;;;;;;19.49;94.10;99925.84;5099078;28;20004;-67
2021/08/05 07:18:20;;;;;;;;;;;;;;;19.88;93.47;99932.00;5099221;28;19923;-68
2021/08/05 07:21:04;;;;;;;;;;;;;;;20.16;90.73;99926.31;5113313;28;19923;-67
2021/08/05 07:23:48;;;;;;;;;;;;;;;20.47;88.32;99924.53;5098920;28;19922;-67
2021/08/05 07:26:32;;;;;;;;;;;;;;;20.50;86.06;99926.00;5098917;28;19972;-67
2021/08/05 07:29:16;;;;;;;;;;;;;;;20.75;86.78;99924.19;5098602;28;19930;-67
2021/08/05 07:32:03;;;;;;;;;;;;;;;20.57;83.82;99915.94;5098782;28;19939;-67
2021/08/05 07:34:47;;;;;;;;;;;;;;;20.56;84.03;99930.53;5099569;28;19968;-67
2021/08/05 07:37:31;;;;;;;;;;;;;;;20.34;86.39;99923.75;5098752;28;19923;-67
2021/08/05 07:40:15;;;;;;;;;;;;;;;20.52;85.16;99924.72;5098838;28;19922;-67
2021/08/05 07:42:59;;;;;;;;;;;;;;;20.65;83.50;99921.09;5098726;28;20005;-67
2021/08/05 07:45:43;;;;;;;;;;;;;;;20.79;79.47;99914.56;5098783;28;19922;-67
2021/08/05 07:48:27;;;;;;;;;;;;;;;20.91;76.46;99919.09;5098599;28;19972;-67
2021/08/05 07:51:10;;;;;;;;;;;;;;;20.75;78.05;99921.47;5098465;28;19923;-67
2021/08/05 07:53:54;;;;;;;;;;;;;;;20.60;80.31;99915.53;5098668;28;19923;-67
2021/08/05 07:56:38;;;;;;;;;;;;;;;20.83;79.88;99915.78;5098646;28;19962;-67
2021/08/05 07:59:22;;;;;;;;;;;;;;;20.48;82.00;99923.50;5098524;28;20337;-67
2021/08/05 08:02:06;;;;;;;;;;;;;;;20.75;82.18;99911.47;5098749;28;20283;-67
2021/08/05 08:04:50;;;;;;;;;;;;;;;20.54;82.47;99917.19;5098123;28;20415;-67
2021/08/05 08:07:38;;;;;;;;;;;;;;;20.57;82.78;99921.34;5113975;28;19985;-67
2021/08/05 08:10:22;;;;;;;;;;;;;;;20.73;82.11;99899.19;5098538;28;19926;-68
2021/08/05 08:13:06;;;;;;;;;;;;;;;20.93;79.35;99908.88;5114209;28;20014;-67
2021/08/05 08:15:49;;;;;;;;;;;;;;;20.91;78.55;99907.44;5112634;28;19968;-68
2021/08/05 08:18:34;;;;;;;;;;;;;;;20.97;79.19;99907.41;5098463;28;19969;-67
2021/08/05 08:21:18;;;;;;;;;;;;;;;21.00;77.08;99901.53;5098259;28;19937;-67
2021/08/05 08:24:02;;;;;;;;;;;;;;;21.07;76.44;99902.31;5112489;28;19922;-67
2021/08/05 08:26:46;;;;;;;;;;;;;;;21.09;76.44;99892.06;5113146;28;19924;-67
2021/08/05 08:29:30;;;;;;;;;;;;;;;20.89;76.56;99894.09;5113676;28;19973;-67
2021/08/05 08:32:14;;;;;;;;;;;;;;;20.95;76.78;99892.41;5114896;28;19922;-67
2021/08/05 08:34:59;;;;;;;;;;;;;;;21.13;75.80;99889.75;5102036;28;19922;-67
2021/08/05 08:37:43;;;;;;;;;;;;;;;21.38;73.32;99892.22;5116314;28;19991;-68
2021/08/05 08:40:26;;;;;;;;;;;;;;;21.79;72.08;99897.91;5101736;28;19942;-68
2021/08/05 08:43:10;;;;;;;;;;;;;;;22.16;69.06;99894.16;5101823;28;19973;-67
2021/08/05 08:45:54;;;;;;;;;;;;;;;22.35;67.45;99893.06;5101931;28;20008;-68
2021/08/05 08:48:39;;;;;;;;;;;;;;;22.40;66.66;99890.53;5101762;28;19931;-68
2021/08/05 08:51:23;;;;;;;;;;;;;;;22.55;66.65;99887.41;5101897;28;19962;-68
2021/08/05 08:54:08;;;;;;;;;;;;;;;22.58;66.64;99881.50;5101367;28;20391;-68
2021/08/05 08:56:52;;;;;;;;;;;;;;;22.62;64.90;99883.53;5101992;28;20421;-69
2021/08/05 08:59:35;;;;;;;;;;;;;;;23.12;64.48;99879.41;5101633;28;19964;-67
2021/08/05 09:02:20;;;;;;;;;;;;;;;23.59;61.31;99880.31;5101519;28;19926;-69
2021/08/05 09:05:05;;;;;;;;;;;;;;;23.74;60.62;99876.03;5115732;28;19923;-68
2021/08/05 09:07:49;;;;;;;;;;;;;;;24.11;60.43;99877.44;5101701;28;19958;-67
2021/08/05 09:10:33;;;;;;;;;;;;;;;24.13;59.44;99882.66;5115855;28;20025;-68
2021/08/05 09:13:17;;;;;;;;;;;;;;;24.11;57.28;99882.88;5101020;28;19926;-68
2021/08/05 09:16:01;;;;;;;;;;;;;;;24.01;59.58;99874.50;5115743;28;20000;-68
2021/08/05 09:18:45;;;;;;;;;;;;;;;23.74;59.43;99873.31;5101263;28;19923;-68
2021/08/05 09:21:29;;;;;;;;;;;;;;;23.45;62.13;99871.53;5100919;28;20008;-68
2021/08/05 09:24:13;;;;;;;;;;;;;;;23.64;60.30;99883.16;5101088;28;20054;-67
2021/08/05 09:26:59;;;;;;;;;;;;;;;24.29;59.33;99869.09;5101031;28;19926;-68
2021/08/05 09:29:44;;;;;;;;;;;;;;;24.65;58.30;99871.47;5100940;28;19927;-68
2021/08/05 09:32:28;;;;;;;;;;;;;;;25.23;56.60;99864.63;5100832;28;19965;-69
2021/08/05 09:35:12;;;;;;;;;;;;;;;25.66;54.77;99866.66;5101236;28;19922;-69
2021/08/05 09:38:13;;;;;;;;;;;;;;;25.98;53.81;99862.22;5115112;28;20048;-68
2021/08/05 09:41:03;;;;;;;;;;;;;;;26.23;52.80;99866.09;5100877;28;19927;-68
2021/08/05 09:43:47;;;;;;;;;;;;;;;26.61;54.15;99857.00;5115269;28;20018;-68
2021/08/05 09:46:31;;;;;;;;;;;;;;;26.13;52.62;99865.16;5100468;28;20026;-68
2021/08/05 09:49:18;;;;;;;;;;;;;;;26.30;53.02;99863.16;5114772;28;20030;-69
2021/08/05 09:52:03;;;;;;;;;;;;;;;26.29;53.54;99848.69;5100694;28;19942;-68
2021/08/05 09:54:48;;;;;;;;;;;;;;;26.58;52.04;99850.16;5114557;28;19969;-69
2021/08/05 09:57:34;;;;;;;;;;;;;;;25.82;50.94;99846.69;5100949;28;20292;-68
2021/08/05 10:00:18;;;;;;;;;;;;;;;25.92;52.21;99852.31;5100447;28;19923;-68
2021/08/05 10:03:02;;;;;;;;;;;;;;;25.40;52.68;99853.69;5100128;28;20299;-68
2021/08/05 10:05:55;;;;;;;;;;;;;;;24.83;55.28;99849.44;5100316;28;19964;-68
2021/08/05 10:08:40;;;;;;;;;;;;;;;24.54;54.80;99843.22;5100190;28;19927;-68
2021/08/05 10:11:34;;;;;;;;;;;;;;;24.07;55.97;99850.94;5100032;28;20334;-68
2021/08/05 10:14:19;;;;;;;;;;;;;;;24.34;56.55;99841.94;5114550;28;20481;-67
2021/08/05 10:17:04;;;;;;;;;;;;;;;24.82;54.86;99845.88;5099860;28;20011;-67
2021/08/05 10:19:48;;;;;;;;;;;;;;;24.66;55.60;99845.84;5099977;28;19922;-69
2021/08/05 10:22:32;;;;;;;;;;;;;;;24.60;56.11;99834.03;5114107;28;20053;-68
2021/08/05 10:25:16;;;;;;;;;;;;;;;25.69;53.31;99836.09;5100261;28;19922;-68
2021/08/05 10:28:01;;;;;;;;;;;;;;;25.95;52.25;99830.75;5099512;28;19970;-69
2021/08/05 10:30:45;;;;;;;;;;;;;;;26.32;50.85;99828.22;5099771;28;19966;-69
2021/08/05 10:33:32;;;;;;;;;;;;;;;26.01;51.78;99832.50;5099639;28;20407;-68
2021/08/05 10:36:16;;;;;;;;;;;;;;;26.46;51.84;99819.34;5100660;28;20419;-68
2021/08/05 10:39:00;;;;;;;;;;;;;;;27.16;49.82;99818.16;5113842;28;19938;-68
2021/08/05 10:41:44;;;;;;;;;;;;;;;26.67;49.18;99823.16;5115016;28;20007;-67
2021/08/05 10:44:28;;;;;;;;;;;;;;;26.81;49.33;99814.28;5114024;28;20487;-68
2021/08/05 10:47:17;;;;;;;;;;;;;;;26.78;47.44;99809.34;5084529;28;21729;-68
2021/08/05 10:50:02;;;;;;;;;;;;;;;26.87;48.84;99807.75;5099309;28;19964;-68
2021/08/05 10:52:50;;;;;;;;;;;;;;;26.26;50.93;99804.66;5113796;28;19993;-68
2021/08/05 10:55:35;;;;;;;;;;;;;;;26.46;51.29;99802.94;5113560;28;20007;-68
2021/08/05 10:58:20;;;;;;;;;;;;;;;26.69;50.05;99799.94;5099243;28;20321;-67
2021/08/05 11:01:04;;;;;;;;;;;;;;;26.55;49.78;99797.91;5098975;28;19922;-68
2021/08/05 11:03:49;;;;;;;;;;;;;;;27.04;50.05;99795.59;5098783;28;19923;-67
2021/08/05 11:06:33;;;;;;;;;;;;;;;27.24;50.38;99793.06;5098990;28;19978;-67
2021/08/05 11:09:27;;;;;;;;;;;;;;;27.71;47.83;99788.41;5099266;28;19973;-68
2021/08/05 11:12:35;;;;;;;;;;;;;;;27.08;48.24;99804.94;5099282;28;19942;-67
2021/08/05 11:15:22;;;;;;;;;;;;;;;26.57;50.78;99795.72;5114139;28;19974;-67
2021/08/05 11:18:06;;;;;;;;;;;;;;;26.54;51.85;99793.50;5113497;28;19964;-68
2021/08/05 11:20:50;;;;;;;;;;;;;;;26.56;48.96;99785.88;5114174;28;19964;-67
2021/08/05 11:23:40;;;;;;;;;;;;;;;27.11;48.73;99777.03;5113072;28;19922;-67
2021/08/05 11:26:24;;;;;;;;;;;;;;;27.32;48.48;99767.09;5113185;28;19984;-67
2021/08/05 11:29:08;;;;;;;;;;;;;;;28.17;47.01;99753.81;5098899;28;19927;-68
2021/08/05 11:31:55;;;;;;;;;;;;;;;28.67;44.76;99764.91;5098952;28;19923;-68
2021/08/05 11:34:57;;;;;;;;;;;;;;;28.29;44.42;99757.97;5113069;28;19923;-67
2021/08/05 11:38:01;;;;;;;;;;;;;;;27.67;44.34;99759.06;5113308;28;19965;-67
2021/08/05 11:40:44;;;;;;;;;;;;;;;27.96;45.81;99763.91;5113962;28;19945;-66
2021/08/05 11:43:30;;;;;;;;;;;;;;;26.82;46.97;99761.22;5112718;28;20506;-67
2021/08/05 11:46:20;;;;;;;;;;;;;;;25.99;49.44;99749.16;5112867;28;19926;-67
2021/08/05 11:49:04;;;;;;;;;;;;;;;25.98;49.95;99748.34;5098492;28;19969;-67
2021/08/05 11:51:48;;;;;;;;;;;;;;;26.14;50.66;99749.31;5113892;28;19970;-67
2021/08/05 11:54:32;;;;;;;;;;;;;;;26.68;50.27;99743.63;5112860;28;20322;-68
2021/08/05 11:57:17;;;;;;;;;;;;;;;27.98;47.51;99737.03;5098643;28;20414;-67
2021/08/05 12:00:00;;;;;;;;;;;;;;;28.98;45.40;99733.66;5113762;28;19922;-68
2021/08/05 12:02:45;;;;;;;;;;;;;;;29.39;41.92;99743.44;5098342;28;19970;-68
2021/08/05 12:05:35;;;;;;;;;;;;;;;30.99;39.86;99727.72;5100665;28;19968;-68
2021/08/05 12:08:19;;;;;;;;;;;;;;;31.64;38.58;99720.72;5102253;28;19982;-68
2021/08/05 12:11:03;;;;;;;;;;;;;;;31.83;36.92;99718.84;5116799;28;19922;-68
2021/08/05 12:13:47;;;;;;;;;;;;;;;31.90;38.11;99709.13;5116595;28;19943;-68
2021/08/05 12:16:31;;;;;;;;;;;;;;;30.90;38.45;99717.63;5102340;28;19977;-68
2021/08/05 12:19:15;;;;;;;;;;;;;;;29.62;39.93;99713.47;5117921;28;19922;-67
2021/08/05 12:21:58;;;;;;;;;;;;;;;29.38;41.22;99709.66;5102159;28;20004;-68
2021/08/05 12:24:44;;;;;;;;;;;;;;;29.53;41.07;99714.31;5101964;28;19980;-69
2021/08/05 12:27:29;;;;;;;;;;;;;;;29.30;40.32;99703.94;5102385;28;19923;-67
2021/08/05 12:30:13;;;;;;;;;;;;;;;28.48;42.35;99704.28;5102096;28;19973;-67
2021/08/05 12:33:01;;;;;;;;;;;;;;;28.92;42.37;99699.91;5101977;28;20395;-68
2021/08/05 12:35:58;;;;;;;;;;;;;;;30.30;39.27;99693.31;5102594;28;20425;-67
2021/08/05 12:38:45;;;;;;;;;;;;;;;30.55;38.11;99684.88;5116781;28;19965;-67
2021/08/05 12:41:29;;;;;;;;;;;;;;;30.78;36.91;99696.00;5116322;28;19923;-68
2021/08/05 12:44:16;;;;;;;;;;;;;;;32.19;35.04;99675.88;5116072;28;19938;-67
2021/08/05 12:47:00;;;;;;;;;;;;;;;31.80;34.99;99667.06;5101810;28;19922;-68
2021/08/05 12:49:44;;;;;;;;;;;;;;;31.47;35.37;99681.81;5101841;28;19964;-68
2021/08/05 12:52:36;;;;;;;;;;;;;;;30.97;36.30;99672.16;5101733;28;19962;-68
2021/08/05 12:55:20;;;;;;;;;;;;;;;30.54;37.92;99673.06;5101776;28;19965;-68
2021/08/05 12:58:14;;;;;;;;;;;;;;;29.34;39.98;99678.38;5101391;28;19969;-68
2021/08/05 13:01:17;;;;;;;;;;;;;;;29.17;41.30;99666.09;5101511;28;19922;-68
2021/08/05 13:04:02;;;;;;;;;;;;;;;28.89;41.93;99670.25;5115791;28;19961;-68
2021/08/05 13:06:51;;;;;;;;;;;;;;;27.45;44.29;99668.06;5101323;28;19923;-68
2021/08/05 13:09:34;;;;;;;;;;;;;;;27.74;43.36;99675.59;5115824;28;19943;-67
2021/08/05 13:12:26;;;;;;;;;;;;;;;27.04;46.08;99663.44;5115709;28;19922;-67
2021/08/05 13:15:36;;;;;;;;;;;;;;;27.90;44.13;99663.59;5101301;28;19922;-68
2021/08/05 13:18:21;;;;;;;;;;;;;;;28.74;42.37;99669.44;5115518;28;20386;-68
2021/08/05 13:21:13;;;;;;;;;;;;;;;28.74;40.98;99667.50;5101101;28;19922;-67
2021/08/05 13:24:14;;;;;;;;;;;;;;;29.71;40.03;99656.84;5101051;28;19980;-68
2021/08/05 13:26:59;;;;;;;;;;;;;;;30.35;38.45;99654.78;5101071;28;19923;-68
2021/08/05 13:29:43;;;;;;;;;;;;;;;30.65;38.34;99651.81;5115008;28;19972;-67
2021/08/05 13:32:27;;;;;;;;;;;;;;;30.54;37.77;99645.53;5115066;28;19958;-67
2021/08/05 13:35:12;;;;;;;;;;;;;;;30.90;37.24;99635.03;5100521;28;19923;-67
2021/08/05 13:38:03;;;;;;;;;;;;;;;31.74;36.77;99632.41;5100307;28;20276;-67
2021/08/05 13:40:47;;;;;;;;;;;;;;;31.39;36.01;99641.13;5115839;28;19927;-67
2021/08/05 13:43:31;;;;;;;;;;;;;;;31.86;35.19;99633.63;5115061;28;19980;-67
2021/08/05 13:46:15;;;;;;;;;;;;;;;30.92;36.50;99635.56;5115227;28;19939;-67
2021/08/05 13:48:59;;;;;;;;;;;;;;;30.27;38.13;99634.22;5100356;28;19926;-67
2021/08/05 13:51:43;;;;;;;;;;;;;;;29.90;39.40;99627.59;5114984;28;19922;-68
2021/08/05 13:54:27;;;;;;;;;;;;;;;29.74;40.32;99639.78;5100465;28;20373;-67
2021/08/05 13:57:12;;;;;;;;;;;;;;;29.64;40.66;99631.59;5115764;28;20288;-67
2021/08/05 13:59:56;;;;;;;;;;;;;;;29.61;40.97;99632.16;5114294;28;19923;-67
2021/08/05 14:02:40;;;;;;;;;;;;;;;28.89;42.95;99631.81;5100366;28;19965;-68
2021/08/05 14:05:24;;;;;;;;;;;;;;;27.93;44.87;99632.09;5099825;28;19919;-67
2021/08/05 14:08:08;;;;;;;;;;;;;;;27.86;46.59;99632.38;5100192;28;20311;-67
2021/08/05 14:10:52;;;;;;;;;;;;;;;27.30;47.86;99625.03;5114410;28;19930;-66
2021/08/05 14:13:35;;;;;;;;;;;;;;;26.92;48.10;99630.81;5114860;28;19923;-66